Neptune Avra — 9HKH6 — position and weather

sailwx.info

Track history (hours):
 
Tides and Currents Weather Stations Pressure Air Temp Water Temp Dewpoint Dewpoint Depression Visibility Wind Speed Wind Dir Waves Ship Positions

Neptune Avra

Last reported at 2015-Apr-14 16:20 UTC. Time now 2015-Apr-18 08:48 UTC.
Position N 35°60' E 000°04'.

Length 155 m; draft 6.6 m.

Type: Cargo ship. MMSI: 248598000.

Date/timePositionNaut miles runAvg speedWind from/ knotsBaromVisibWave heightAir tempDewpointWater temp
2015-Apr-14 16:20N 35°60' E 000°04'0 0.0
2015-Apr-13 18:18N 35°59' E 000°04'0 0.0
2015-Apr-13 17:14N 35°60' E 000°04'0 0.0
2015-Apr-13 16:33N 35°59' E 000°04'0 0.0
2015-Apr-13 15:20N 35°60' E 000°04'0 0.1
2015-Apr-13 14:33N 35°59' E 000°04'0 0.0
2015-Apr-13 13:28N 35°60' E 000°04'162 3.8
2015-Apr-11 19:07N 38°36' E 000°57'914.7
2015-Apr-11 18:30N 38°44' E 000°60'1614.5
2015-Apr-11 17:23N 38°60' E 001°06'1415.0
2015-Apr-11 16:27N 39°12' E 001°15'1314.1
2015-Apr-11 15:33N 39°23' E 001°23'2015.1
2015-Apr-11 14:14N 39°41' E 001°35'1014.9
2015-Apr-11 13:33N 39°50' E 001°41'1514.9
2015-Apr-11 12:33N 40°03' E 001°50'1615.6
2015-Apr-11 11:33N 40°17' E 001°59'1515.5
2015-Apr-11 10:33N 40°30' E 002°09'1515.0
2015-Apr-11 09:33N 40°44' E 002°18'1514.9
2015-Apr-11 08:33N 40°57' E 002°26'1915.2
2015-Apr-11 07:18N 41°14' E 002°37'1215.3
2015-Apr-11 06:33N 41°25' E 002°44'1515.0
2015-Apr-11 05:33N 41°37' E 002°56'1514.9
2015-Apr-11 04:33N 41°48' E 003°09'1414.3
2015-Apr-11 03:33N 42°01' E 003°17'1514.8
2015-Apr-11 02:33N 42°15' E 003°21'1414.3
2015-Apr-11 01:34N 42°30' E 003°22'1414.3
2015-Apr-11 00:34N 42°44' E 003°23'1714.4
2015-Apr-10 23:22N 43°01' E 003°28'1514.4
2015-Apr-10 22:17N 43°14' E 003°38'10 9.7
2015-Apr-10 21:14N 43°24' E 003°43'0 0.1
2015-Apr-10 20:33N 43°24' E 003°43'0 0.0
2015-Apr-10 19:33N 43°24' E 003°43'0 0.0
2015-Apr-10 18:33N 43°24' E 003°43'0 0.0
2015-Apr-10 17:23N 43°24' E 003°43'0 0.0
2015-Apr-10 16:33N 43°24' E 003°43'0 0.0
2015-Apr-10 15:19N 43°24' E 003°43'0 0.0
2015-Apr-10 14:31N 43°24' E 003°43'0 0.0
2015-Apr-10 13:31N 43°24' E 003°43'0 0.0
2015-Apr-10 12:31N 43°24' E 003°43'0 0.0
2015-Apr-10 11:07N 43°24' E 003°43'0 0.0
2015-Apr-10 09:16N 43°24' E 003°43'0 0.0
2015-Apr-10 08:07N 43°24' E 003°43'0 0.0
2015-Apr-10 07:15N 43°24' E 003°43'83 7.7
2015-Apr-09 20:27N 42°03' E 003°20'1314.8
2015-Apr-09 19:33N 41°50' E 003°15'1514.6
2015-Apr-09 18:33N 41°42' E 002°59'1814.9
2015-Apr-09 17:20N 41°31' E 002°39'1114.5
2015-Apr-09 16:33N 41°25' E 002°27'1411.6
2015-Apr-09 15:21N 41°19' E 002°10'2 0.1
2015-Apr-09 04:06N 41°20' E 002°09'3 3.2
2015-Apr-09 03:06N 41°18' E 002°12'2 0.6
2015-Apr-09 00:05N 41°20' E 002°12'0 0.0
2015-Apr-08 22:29N 41°20' E 002°12'0 0.2
2015-Apr-08 21:27N 41°20' E 002°12'8 8.6
2015-Apr-08 20:33N 41°13' E 002°07'1414.2
2015-Apr-08 19:33N 41°06' E 001°50'1515.0
2015-Apr-08 18:33N 40°58' E 001°33'1515.0
2015-Apr-08 17:33N 40°50' E 001°17'1915.0
2015-Apr-08 16:17N 40°35' E 001°00'8114.1
2015-Apr-08 10:33N 39°36' W 000°11'3 0.4
2015-Apr-08 03:20N 39°39' W 000°13'4 4.6
2015-Apr-08 02:27N 39°36' W 000°11'8 8.4
2015-Apr-08 01:29N 39°29' W 000°05'  
2015-Apr-05 20:05N 35°56' E 000°05'0 0.0
2015-Apr-05 19:29N 35°56' E 000°05'0 0.0
2015-Apr-05 18:29N 35°56' E 000°05'0 0.0
2015-Apr-05 17:29N 35°56' E 000°05'0 0.0
2015-Apr-05 16:23N 35°56' E 000°05'0 0.0
2015-Apr-05 15:29N 35°56' E 000°05'2 0.5
2015-Apr-05 10:16N 35°58' E 000°04'0 0.0
2015-Apr-05 09:28N 35°58' E 000°04'0 0.0
2015-Apr-05 08:28N 35°58' E 000°04'  
Track history (hours):
 
Tides and Currents Weather Stations Pressure Air Temp Water Temp Dewpoint Dewpoint Depression Visibility Wind Speed Wind Dir Waves Ship Positions

Neptune Avra

Last reported at 2015-Apr-14 16:20 UTC. Time now 2015-Apr-18 08:48 UTC.
Position N 35°60' E 000°04'.

Length 155 m; draft 6.6 m.

Type: Cargo ship. MMSI: 248598000.

Date/timePositionNaut miles runAvg speedWind from/ knotsBaromVisibWave heightAir tempDewpointWater temp
2015-Apr-14 16:20N 35°60' E 000°04'0 0.0
2015-Apr-13 18:18N 35°59' E 000°04'0 0.0
2015-Apr-13 17:14N 35°60' E 000°04'0 0.0
2015-Apr-13 16:33N 35°59' E 000°04'0 0.0
2015-Apr-13 15:20N 35°60' E 000°04'0 0.1
2015-Apr-13 14:33N 35°59' E 000°04'0 0.0
2015-Apr-13 13:28N 35°60' E 000°04'162 3.8
2015-Apr-11 19:07N 38°36' E 000°57'914.7
2015-Apr-11 18:30N 38°44' E 000°60'1614.5
2015-Apr-11 17:23N 38°60' E 001°06'1415.0
2015-Apr-11 16:27N 39°12' E 001°15'1314.1
2015-Apr-11 15:33N 39°23' E 001°23'2015.1
2015-Apr-11 14:14N 39°41' E 001°35'1014.9
2015-Apr-11 13:33N 39°50' E 001°41'1514.9
2015-Apr-11 12:33N 40°03' E 001°50'1615.6
2015-Apr-11 11:33N 40°17' E 001°59'1515.5
2015-Apr-11 10:33N 40°30' E 002°09'1515.0
2015-Apr-11 09:33N 40°44' E 002°18'1514.9
2015-Apr-11 08:33N 40°57' E 002°26'1915.2
2015-Apr-11 07:18N 41°14' E 002°37'1215.3
2015-Apr-11 06:33N 41°25' E 002°44'1515.0
2015-Apr-11 05:33N 41°37' E 002°56'1514.9
2015-Apr-11 04:33N 41°48' E 003°09'1414.3
2015-Apr-11 03:33N 42°01' E 003°17'1514.8
2015-Apr-11 02:33N 42°15' E 003°21'1414.3
2015-Apr-11 01:34N 42°30' E 003°22'1414.3
2015-Apr-11 00:34N 42°44' E 003°23'1714.4
2015-Apr-10 23:22N 43°01' E 003°28'1514.4
2015-Apr-10 22:17N 43°14' E 003°38'10 9.7
2015-Apr-10 21:14N 43°24' E 003°43'0 0.1
2015-Apr-10 20:33N 43°24' E 003°43'0 0.0
2015-Apr-10 19:33N 43°24' E 003°43'0 0.0
2015-Apr-10 18:33N 43°24' E 003°43'0 0.0
2015-Apr-10 17:23N 43°24' E 003°43'0 0.0
2015-Apr-10 16:33N 43°24' E 003°43'0 0.0
2015-Apr-10 15:19N 43°24' E 003°43'0 0.0
2015-Apr-10 14:31N 43°24' E 003°43'0 0.0
2015-Apr-10 13:31N 43°24' E 003°43'0 0.0
2015-Apr-10 12:31N 43°24' E 003°43'0 0.0
2015-Apr-10 11:07N 43°24' E 003°43'0 0.0
2015-Apr-10 09:16N 43°24' E 003°43'0 0.0
2015-Apr-10 08:07N 43°24' E 003°43'0 0.0
2015-Apr-10 07:15N 43°24' E 003°43'83 7.7
2015-Apr-09 20:27N 42°03' E 003°20'1314.8
2015-Apr-09 19:33N 41°50' E 003°15'1514.6
2015-Apr-09 18:33N 41°42' E 002°59'1814.9
2015-Apr-09 17:20N 41°31' E 002°39'1114.5
2015-Apr-09 16:33N 41°25' E 002°27'1411.6
2015-Apr-09 15:21N 41°19' E 002°10'2 0.1
2015-Apr-09 04:06N 41°20' E 002°09'3 3.2
2015-Apr-09 03:06N 41°18' E 002°12'2 0.6
2015-Apr-09 00:05N 41°20' E 002°12'0 0.0
2015-Apr-08 22:29N 41°20' E 002°12'0 0.2
2015-Apr-08 21:27N 41°20' E 002°12'8 8.6
2015-Apr-08 20:33N 41°13' E 002°07'1414.2
2015-Apr-08 19:33N 41°06' E 001°50'1515.0
2015-Apr-08 18:33N 40°58' E 001°33'1515.0
2015-Apr-08 17:33N 40°50' E 001°17'1915.0
2015-Apr-08 16:17N 40°35' E 001°00'8114.1
2015-Apr-08 10:33N 39°36' W 000°11'3 0.4
2015-Apr-08 03:20N 39°39' W 000°13'4 4.6
2015-Apr-08 02:27N 39°36' W 000°11'8 8.4
2015-Apr-08 01:29N 39°29' W 000°05'  
2015-Apr-05 20:05N 35°56' E 000°05'0 0.0
2015-Apr-05 19:29N 35°56' E 000°05'0 0.0
2015-Apr-05 18:29N 35°56' E 000°05'0 0.0
2015-Apr-05 17:29N 35°56' E 000°05'0 0.0
2015-Apr-05 16:23N 35°56' E 000°05'0 0.0
2015-Apr-05 15:29N 35°56' E 000°05'2 0.5
2015-Apr-05 10:16N 35°58' E 000°04'0 0.0
2015-Apr-05 09:28N 35°58' E 000°04'0 0.0
2015-Apr-05 08:28N 35°58' E 000°04'  

Dump ship's entire track history